createdAt,value
2022-08-29T00:01:33.367Z,10.15
2022-08-29T00:04:01.356Z,11.23
2022-08-29T00:06:29.419Z,11.32
2022-08-29T00:08:57.740Z,9.88
2022-08-29T00:11:25.556Z,10.48
2022-08-29T00:13:53.492Z,11.70
2022-08-29T00:16:22.632Z,10.30
2022-08-29T00:18:50.553Z,11.25
2022-08-29T00:21:18.356Z,11.88
2022-08-29T00:23:46.406Z,9.85
2022-08-29T00:26:14.447Z,11.23
2022-08-29T00:28:42.336Z,12.10
2022-08-29T00:31:10.097Z,10.75
2022-08-29T00:33:39.549Z,11.27
2022-08-29T00:36:07.875Z,10.95
2022-08-29T00:38:35.929Z,11.30
2022-08-29T00:41:04.863Z,11.98
2022-08-29T00:43:36.153Z,11.30
2022-08-29T00:46:13.049Z,13.50
2022-08-29T00:48:43.211Z,11.40
2022-08-29T00:51:18.540Z,11.18
2022-08-29T00:53:49.293Z,11.13
2022-08-29T00:56:18.690Z,10.38
2022-08-29T00:58:51.738Z,11.68
2022-08-29T01:01:20.077Z,10.50
2022-08-29T01:03:51.092Z,11.77
2022-08-29T01:06:19.662Z,10.98
2022-08-29T01:08:47.745Z,11.75
2022-08-29T01:11:35.639Z,9.80
2022-08-29T01:14:04.788Z,10.75
2022-08-29T01:16:33.338Z,10.85
2022-08-29T01:19:08.365Z,10.65
2022-08-29T01:21:42.559Z,9.10
2022-08-29T01:24:21.340Z,11.20
2022-08-29T01:26:49.118Z,11.35
2022-08-29T01:29:17.418Z,10.50
2022-08-29T01:31:57.783Z,9.40
2022-08-29T01:34:28.842Z,9.93
2022-08-29T01:36:59.019Z,10.05
2022-08-29T01:39:30.980Z,10.25
2022-08-29T01:42:01.397Z,9.52
2022-08-29T01:44:29.183Z,9.63
2022-08-29T01:47:02.657Z,9.48
2022-08-29T01:49:32.229Z,10.48
2022-08-29T01:52:00.164Z,10.45
2022-08-29T01:54:31.557Z,10.35
2022-08-29T01:56:59.433Z,9.35
2022-08-29T01:59:29.393Z,10.38
2022-08-29T02:02:01.454Z,10.57
2022-08-29T02:04:29.579Z,11.07
2022-08-29T02:06:58.760Z,10.73
2022-08-29T02:09:27.696Z,11.07
2022-08-29T02:11:58.179Z,12.05
2022-08-29T02:14:26.464Z,10.48
2022-08-29T02:16:54.259Z,9.15
2022-08-29T02:19:22.051Z,9.52
2022-08-29T02:21:51.539Z,10.27
2022-08-29T02:24:25.921Z,9.40
2022-08-29T02:26:57.780Z,11.07
2022-08-29T02:29:34.249Z,9.90
2022-08-29T02:32:07.969Z,9.35
2022-08-29T02:34:36.360Z,10.05
2022-08-29T02:37:05.171Z,11.02
2022-08-29T02:39:34.265Z,11.15
2022-08-29T02:42:03.416Z,9.02
2022-08-29T02:44:31.681Z,10.82
2022-08-29T02:46:59.473Z,10.43
2022-08-29T02:49:27.381Z,9.50
2022-08-29T02:51:55.193Z,10.80
2022-08-29T02:54:23.626Z,10.75
2022-08-29T02:56:51.571Z,9.63
2022-08-29T02:59:20.677Z,10.60
2022-08-29T03:01:48.532Z,10.60
2022-08-29T03:04:16.377Z,10.95
2022-08-29T03:06:44.196Z,9.98
2022-08-29T03:09:11.992Z,10.20
2022-08-29T03:11:39.955Z,11.77
2022-08-29T03:14:07.787Z,10.93
2022-08-29T03:16:37.073Z,10.93
2022-08-29T03:19:04.863Z,12.82
2022-08-29T03:21:33.411Z,10.18
2022-08-29T03:24:01.175Z,10.02
2022-08-29T03:26:28.985Z,10.02
2022-08-29T03:28:56.727Z,10.15
2022-08-29T03:31:24.663Z,10.57
2022-08-29T03:33:54.036Z,9.90
2022-08-29T03:36:21.889Z,9.70
2022-08-29T03:38:49.650Z,8.88
2022-08-29T03:41:22.166Z,9.80
2022-08-29T03:43:49.957Z,10.50
2022-08-29T03:46:17.837Z,9.00
2022-08-29T03:48:45.816Z,10.18
2022-08-29T03:51:15.111Z,9.75
2022-08-29T03:53:43.424Z,9.60
2022-08-29T03:56:18.560Z,10.48
2022-08-29T03:58:52.610Z,9.18
2022-08-29T04:01:22.486Z,15.85
2022-08-29T04:03:51.040Z,24.75
2022-08-29T04:06:20.262Z,34.60
2022-08-29T04:08:48.625Z,40.30
2022-08-29T04:11:17.959Z,43.05
2022-08-29T04:13:46.369Z,37.53
2022-08-29T04:16:16.450Z,32.88
2022-08-29T04:18:44.774Z,28.35
2022-08-29T04:21:13.478Z,31.45
2022-08-29T04:23:42.718Z,35.85
2022-08-29T04:26:35.160Z,33.92
2022-08-29T04:29:03.163Z,36.92
2022-08-29T04:31:30.939Z,19.10
2022-08-29T04:33:58.902Z,13.48
2022-08-29T04:36:28.111Z,12.00
2022-08-29T04:38:57.907Z,10.70
2022-08-29T04:41:25.721Z,8.85
2022-08-29T04:43:53.521Z,9.10
2022-08-29T04:46:24.467Z,9.73
2022-08-29T04:48:53.382Z,9.80
2022-08-29T04:51:22.501Z,8.27
2022-08-29T04:53:51.704Z,9.68
2022-08-29T04:56:22.371Z,7.90
2022-08-29T04:58:52.022Z,9.05
2022-08-29T05:01:22.626Z,9.15
2022-08-29T05:03:52.116Z,9.90
2022-08-29T05:06:22.528Z,9.85
2022-08-29T05:08:59.323Z,8.93
2022-08-29T05:11:30.752Z,9.60
2022-08-29T05:13:59.126Z,9.02
2022-08-29T05:16:27.400Z,8.02
2022-08-29T05:18:55.222Z,8.60
2022-08-29T05:21:28.356Z,6.95
2022-08-29T05:23:57.157Z,7.35
2022-08-29T05:26:26.265Z,7.95
2022-08-29T05:28:55.333Z,6.97
2022-08-29T05:31:23.584Z,7.10
2022-08-29T05:33:51.919Z,7.20
2022-08-29T05:36:20.196Z,7.10
2022-08-29T05:38:48.208Z,7.78
2022-08-29T05:41:16.095Z,7.60
2022-08-29T05:43:43.929Z,6.78
2022-08-29T05:46:13.173Z,6.95
2022-08-29T05:48:43.036Z,6.85
2022-08-29T05:51:16.461Z,7.82
2022-08-29T05:53:44.461Z,6.00
2022-08-29T05:56:12.869Z,7.05
2022-08-29T05:58:40.633Z,6.45
2022-08-29T06:01:08.386Z,6.35
2022-08-29T06:03:39.046Z,7.05
2022-08-29T06:06:08.656Z,7.43
2022-08-29T06:08:36.362Z,6.88
2022-08-29T06:11:04.294Z,6.35
2022-08-29T06:13:32.021Z,6.20
2022-08-29T06:15:59.919Z,6.15
2022-08-29T06:18:35.852Z,6.63
2022-08-29T06:21:06.751Z,6.13
2022-08-29T06:23:34.706Z,6.38
2022-08-29T06:26:02.629Z,6.88
2022-08-29T06:28:32.121Z,5.68
2022-08-29T06:31:06.692Z,5.15
2022-08-29T06:33:34.862Z,5.47
2022-08-29T06:36:04.585Z,6.45
2022-08-29T06:38:34.181Z,4.80
2022-08-29T06:41:03.588Z,5.38
2022-08-29T06:43:31.349Z,5.50
2022-08-29T06:45:59.467Z,5.72
2022-08-29T06:48:29.575Z,5.03
2022-08-29T06:50:58.316Z,5.32
2022-08-29T06:53:32.104Z,5.10
2022-08-29T06:56:06.769Z,5.28
2022-08-29T06:58:39.390Z,4.93
2022-08-29T07:01:08.507Z,5.50
2022-08-29T07:03:36.463Z,5.20
2022-08-29T07:06:04.645Z,4.35
2022-08-29T07:08:33.709Z,4.80
2022-08-29T07:11:01.514Z,4.88
2022-08-29T07:13:31.250Z,4.40
2022-08-29T07:15:59.153Z,4.72
2022-08-29T07:18:27.045Z,3.97
2022-08-29T07:20:54.980Z,4.38
2022-08-29T07:23:23.230Z,3.83
2022-08-29T07:25:54.443Z,5.15
2022-08-29T07:28:22.235Z,4.88
2022-08-29T07:30:52.141Z,3.50
2022-08-29T07:33:20.081Z,3.83
2022-08-29T07:35:48.266Z,4.20
2022-08-29T07:38:16.151Z,3.50
2022-08-29T07:40:44.154Z,3.78
2022-08-29T07:43:15.428Z,3.60
2022-08-29T07:45:45.756Z,4.57
2022-08-29T07:48:15.121Z,4.18
2022-08-29T07:50:43.900Z,3.95
2022-08-29T07:53:11.710Z,4.20
2022-08-29T07:55:39.550Z,3.65
2022-08-29T07:58:07.547Z,4.25
2022-08-29T08:00:35.374Z,4.32
2022-08-29T08:03:03.222Z,4.45
2022-08-29T08:05:32.419Z,4.55
2022-08-29T08:08:05.314Z,3.55
2022-08-29T08:10:39.444Z,4.05
2022-08-29T08:13:07.832Z,4.00
2022-08-29T08:15:35.699Z,3.90
2022-08-29T08:18:03.453Z,4.07
2022-08-29T08:20:32.557Z,3.95
2022-08-29T08:23:00.360Z,4.00
2022-08-29T08:25:28.398Z,3.60
2022-08-29T08:27:57.037Z,3.97
2022-08-29T08:30:25.529Z,3.92
2022-08-29T08:32:55.131Z,3.95
2022-08-29T08:35:23.180Z,3.35
2022-08-29T08:37:53.329Z,2.65
2022-08-29T08:40:23.788Z,3.85
2022-08-29T08:42:51.970Z,3.78
2022-08-29T08:45:23.131Z,4.45
2022-08-29T08:47:54.327Z,3.72
2022-08-29T08:50:27.762Z,4.30
2022-08-29T08:53:00.760Z,4.10
2022-08-29T08:55:39.868Z,3.53
2022-08-29T08:58:16.618Z,4.10
2022-08-29T09:00:47.582Z,2.92
2022-08-29T09:03:46.761Z,3.35
2022-08-29T09:06:26.995Z,3.35
2022-08-29T09:09:06.101Z,3.20
2022-08-29T09:11:49.955Z,3.50
2022-08-29T09:14:33.694Z,3.78
2022-08-29T09:17:03.297Z,3.78
2022-08-29T09:19:32.252Z,3.13
2022-08-29T09:22:07.616Z,3.05
2022-08-29T09:24:41.728Z,3.30
2022-08-29T09:27:18.707Z,4.07
2022-08-29T09:29:48.797Z,3.70
2022-08-29T09:32:22.174Z,3.40
2022-08-29T09:35:08.434Z,2.83
2022-08-29T09:37:37.434Z,4.47
2022-08-29T09:40:11.052Z,3.60
2022-08-29T09:42:42.453Z,3.67
2022-08-29T09:45:20.359Z,3.38
2022-08-29T09:47:48.292Z,3.90
2022-08-29T09:50:24.540Z,3.30
2022-08-29T09:52:54.346Z,3.80
2022-08-29T09:55:30.402Z,3.30
2022-08-29T09:58:02.331Z,3.50
2022-08-29T10:00:34.023Z,3.42
2022-08-29T10:03:04.300Z,4.07
2022-08-29T10:05:42.476Z,4.22
2022-08-29T10:08:30.467Z,4.07
2022-08-29T10:11:02.881Z,2.80
2022-08-29T10:13:48.319Z,4.28
2022-08-29T10:16:24.689Z,3.72
2022-08-29T10:18:57.910Z,3.85
2022-08-29T10:21:33.614Z,3.75
2022-08-29T10:24:24.173Z,4.03
2022-08-29T10:27:00.986Z,3.90
2022-08-29T10:29:52.149Z,3.45
2022-08-29T10:32:34.056Z,3.58
2022-08-29T10:35:09.622Z,4.32
2022-08-29T10:37:48.626Z,3.35
2022-08-29T10:40:23.953Z,3.65
2022-08-29T10:43:12.490Z,4.07
2022-08-29T10:45:57.592Z,3.53
2022-08-29T10:48:31.449Z,3.35
2022-08-29T10:51:17.278Z,4.15
2022-08-29T10:53:49.692Z,3.00
2022-08-29T10:56:22.786Z,4.60
2022-08-29T10:59:04.013Z,3.38
2022-08-29T11:01:35.896Z,3.67
2022-08-29T11:04:17.566Z,4.50
2022-08-29T11:06:53.744Z,3.53
2022-08-29T11:09:25.313Z,3.25
2022-08-29T11:12:05.568Z,3.33
2022-08-29T11:14:39.101Z,4.28
2022-08-29T11:17:10.210Z,2.95
2022-08-29T11:19:49.345Z,3.60
2022-08-29T11:22:21.202Z,3.47
2022-08-29T11:24:58.444Z,3.85
2022-08-29T11:27:37.787Z,3.03
2022-08-29T11:30:11.102Z,3.42
2022-08-29T11:32:48.616Z,3.53
2022-08-29T11:35:22.682Z,3.42
2022-08-29T11:38:26.797Z,2.70
2022-08-29T11:44:14.182Z,3.53
2022-08-29T11:46:52.894Z,4.03
2022-08-29T11:49:37.097Z,3.78
2022-08-29T11:52:25.406Z,3.40
2022-08-29T11:55:15.819Z,4.03
2022-08-29T11:58:04.190Z,4.47
2022-08-29T12:00:51.146Z,4.05
2022-08-29T12:03:57.186Z,2.85
2022-08-29T12:06:37.112Z,4.35
2022-08-29T12:09:18.431Z,3.10
2022-08-29T12:12:20.715Z,2.83
2022-08-29T12:14:50.122Z,3.25
2022-08-29T12:18:00.818Z,3.72
2022-08-29T12:20:52.563Z,3.50
2022-08-29T12:23:26.901Z,3.85
2022-08-29T12:26:15.774Z,3.80
2022-08-29T12:28:47.774Z,3.45
2022-08-29T12:32:18.219Z,3.42
2022-08-29T12:34:55.724Z,4.20
2022-08-29T12:37:52.453Z,5.28
2022-08-29T12:40:39.643Z,4.05
2022-08-29T12:43:29.752Z,3.08
2022-08-29T12:45:58.554Z,5.03
2022-08-29T12:48:29.632Z,2.65
2022-08-29T12:50:57.769Z,3.40
2022-08-29T12:53:30.224Z,3.05
2022-08-29T12:56:00.163Z,3.45
2022-08-29T12:58:36.752Z,3.67
2022-08-29T13:01:07.846Z,3.80
2022-08-29T13:03:36.445Z,2.85
2022-08-29T13:06:08.422Z,3.15
2022-08-29T13:08:38.162Z,2.55
2022-08-29T13:11:08.118Z,3.50
2022-08-29T13:13:36.772Z,3.45
2022-08-29T13:16:07.916Z,3.13
2022-08-29T13:18:49.102Z,3.08
2022-08-29T13:21:25.986Z,3.28
2022-08-29T13:24:05.356Z,3.20
2022-08-29T13:26:34.188Z,3.53
2022-08-29T13:29:22.076Z,3.13
2022-08-29T13:32:23.806Z,3.30
2022-08-29T13:35:05.224Z,3.00
2022-08-29T13:37:36.150Z,2.60
2022-08-29T13:40:30.647Z,3.40
2022-08-29T13:43:00.319Z,2.63
2022-08-29T13:45:28.361Z,3.00
2022-08-29T13:47:59.611Z,3.22
2022-08-29T13:50:28.046Z,3.13
2022-08-29T13:52:57.671Z,3.25
2022-08-29T13:55:25.811Z,2.40
2022-08-29T13:57:56.352Z,3.50
2022-08-29T14:00:35.026Z,2.90
2022-08-29T14:03:06.989Z,2.30
2022-08-29T14:05:36.143Z,3.38
2022-08-29T14:08:05.359Z,2.58
2022-08-29T14:10:33.272Z,2.83
2022-08-29T14:13:02.917Z,2.40
2022-08-29T14:15:30.892Z,2.70
2022-08-29T14:17:59.372Z,3.08
2022-08-29T14:20:27.478Z,2.35
2022-08-29T14:22:55.412Z,2.85
2022-08-29T14:25:23.333Z,2.53
2022-08-29T14:27:51.697Z,3.58
2022-08-29T14:30:22.909Z,2.95
2022-08-29T14:32:50.962Z,2.90
2022-08-29T14:35:26.485Z,3.25
2022-08-29T14:37:59.390Z,2.92
2022-08-29T14:40:29.087Z,3.20
2022-08-29T14:42:57.555Z,3.38
2022-08-29T14:45:27.513Z,3.10
2022-08-29T14:47:55.700Z,2.50
2022-08-29T14:50:24.275Z,2.83
2022-08-29T14:52:52.359Z,3.05
2022-08-29T14:55:21.266Z,3.35
2022-08-29T14:57:49.239Z,2.70
2022-08-29T15:00:19.931Z,2.67
2022-08-29T15:02:49.545Z,2.45
2022-08-29T15:05:17.429Z,2.63
2022-08-29T15:07:45.843Z,3.17
2022-08-29T15:10:15.610Z,3.03
2022-08-29T15:12:43.519Z,3.03
2022-08-29T15:15:12.528Z,2.50
2022-08-29T15:17:43.585Z,3.15
2022-08-29T15:20:35.359Z,3.03
2022-08-29T15:23:03.453Z,2.90
2022-08-29T15:25:31.378Z,2.40
2022-08-29T15:27:59.437Z,2.60
2022-08-29T15:30:27.516Z,2.67
2022-08-29T15:32:55.815Z,2.97
2022-08-29T15:35:25.590Z,3.00
2022-08-29T15:37:54.401Z,3.38
2022-08-29T15:40:23.069Z,2.50
2022-08-29T15:42:51.097Z,2.80
2022-08-29T15:45:19.166Z,2.67
2022-08-29T15:47:54.115Z,3.25
2022-08-29T15:50:23.711Z,2.30
2022-08-29T15:52:53.586Z,3.13
2022-08-29T15:55:22.389Z,2.92
2022-08-29T15:57:52.424Z,2.63
2022-08-29T16:00:30.454Z,2.35
2022-08-29T16:03:03.560Z,2.95
2022-08-29T16:05:32.585Z,2.92
2022-08-29T16:08:02.071Z,2.72
2022-08-29T16:10:30.014Z,3.00
2022-08-29T16:12:58.377Z,2.22
2022-08-29T16:15:27.782Z,2.60
2022-08-29T16:17:55.794Z,2.40
2022-08-29T16:20:23.814Z,2.75
2022-08-29T16:22:51.854Z,3.00
2022-08-29T16:25:22.510Z,3.00
2022-08-29T16:27:50.847Z,2.65
2022-08-29T16:30:19.185Z,2.78
2022-08-29T16:32:48.408Z,2.65
2022-08-29T16:35:16.845Z,3.40
2022-08-29T16:37:44.885Z,2.63
2022-08-29T16:40:15.890Z,3.08
2022-08-29T16:42:55.648Z,2.35
2022-08-29T16:45:23.871Z,2.80
2022-08-29T16:47:56.732Z,2.58
2022-08-29T16:50:26.710Z,2.25
2022-08-29T16:52:54.822Z,2.80
2022-08-29T16:55:24.815Z,2.75
2022-08-29T16:58:11.676Z,2.17
2022-08-29T17:00:40.278Z,2.80
2022-08-29T17:03:08.146Z,2.88
2022-08-29T17:05:36.018Z,3.08
2022-08-29T17:08:03.251Z,2.60
2022-08-29T17:10:29.998Z,2.58
2022-08-29T17:12:58.075Z,2.85
2022-08-29T17:15:24.926Z,3.17
2022-08-29T17:17:52.747Z,3.22
2022-08-29T17:20:20.773Z,2.55
2022-08-29T17:22:48.581Z,3.40
2022-08-29T17:25:16.486Z,3.45
2022-08-29T17:27:55.605Z,3.55
2022-08-29T17:30:33.587Z,3.97
2022-08-29T17:33:02.725Z,3.15
2022-08-29T17:35:31.283Z,3.25
2022-08-29T17:37:59.625Z,3.17
2022-08-29T17:40:27.563Z,3.20
2022-08-29T17:42:55.449Z,2.88
2022-08-29T17:45:23.325Z,2.72
2022-08-29T17:47:52.477Z,3.22
2022-08-29T17:50:20.420Z,3.03
2022-08-29T17:52:48.225Z,3.80
2022-08-29T17:55:16.300Z,3.67
2022-08-29T17:57:44.177Z,3.63
2022-08-29T18:00:13.152Z,3.13
2022-08-29T18:02:41.754Z,3.88
2022-08-29T18:05:12.674Z,4.10
2022-08-29T18:07:41.406Z,4.65
2022-08-29T18:10:11.424Z,3.70
2022-08-29T18:12:39.611Z,3.28
2022-08-29T18:15:09.271Z,3.28
2022-08-29T18:17:37.686Z,4.22
2022-08-29T18:20:07.585Z,3.60
2022-08-29T18:22:37.154Z,3.85
2022-08-29T18:25:06.311Z,3.70
2022-08-29T18:27:34.446Z,3.92
2022-08-29T18:30:02.952Z,4.80
2022-08-29T18:32:34.759Z,4.22
2022-08-29T18:35:05.985Z,4.70
2022-08-29T18:37:33.787Z,4.10
2022-08-29T18:40:03.642Z,4.20
2022-08-29T18:42:40.523Z,4.03
2022-08-29T18:45:10.313Z,3.97
2022-08-29T18:47:38.516Z,4.78
2022-08-29T18:50:25.458Z,4.00
2022-08-29T18:52:55.283Z,4.35
2022-08-29T18:55:25.078Z,4.53
2022-08-29T18:57:53.189Z,3.85
2022-08-29T19:00:21.710Z,3.70
2022-08-29T19:02:49.508Z,4.25
2022-08-29T19:05:18.444Z,4.60
2022-08-29T19:07:46.261Z,4.60
2022-08-29T19:10:14.731Z,4.43
2022-08-29T19:12:44.261Z,4.43
2022-08-29T19:15:15.748Z,4.40
2022-08-29T19:17:43.945Z,3.83
2022-08-29T19:20:28.568Z,4.38
2022-08-29T19:22:56.470Z,4.72
2022-08-29T19:25:24.350Z,4.85
2022-08-29T19:27:53.544Z,4.35
2022-08-29T19:30:21.554Z,3.80
2022-08-29T19:32:49.952Z,5.22
2022-08-29T19:35:18.315Z,5.10
2022-08-29T19:37:46.140Z,4.20
2022-08-29T19:40:17.520Z,4.47
2022-08-29T19:42:47.992Z,4.85
2022-08-29T19:45:20.212Z,5.43
2022-08-29T19:47:49.444Z,5.18
2022-08-29T19:50:18.727Z,4.60
2022-08-29T19:52:46.634Z,4.63
2022-08-29T19:55:17.776Z,5.03
2022-08-29T19:57:47.402Z,4.15
2022-08-29T20:00:19.860Z,5.45
2022-08-29T20:02:47.695Z,4.93
2022-08-29T20:05:18.164Z,4.50
2022-08-29T20:07:49.607Z,5.22
2022-08-29T20:10:21.474Z,5.18
2022-08-29T20:12:51.716Z,5.07
2022-08-29T20:15:26.768Z,5.00
2022-08-29T20:17:59.382Z,4.97
2022-08-29T20:20:30.449Z,5.03
2022-08-29T20:22:58.466Z,4.97
2022-08-29T20:25:26.660Z,5.85
2022-08-29T20:27:54.427Z,5.43
2022-08-29T20:30:27.128Z,5.95
2022-08-29T20:32:55.716Z,4.90
2022-08-29T20:35:38.208Z,5.20
2022-08-29T20:38:06.156Z,7.10
2022-08-29T20:40:37.132Z,5.82
2022-08-29T20:43:06.186Z,5.45
2022-08-29T20:45:35.548Z,6.03
2022-08-29T20:48:03.656Z,5.85
2022-08-29T20:50:31.667Z,5.25
2022-08-29T20:52:59.505Z,7.10
2022-08-29T20:55:27.428Z,6.05
2022-08-29T20:57:55.251Z,6.05
2022-08-29T21:00:23.649Z,8.15
2022-08-29T21:03:10.326Z,8.00
2022-08-29T21:05:42.598Z,8.98
2022-08-29T21:08:12.424Z,8.38
2022-08-29T21:10:40.607Z,9.05
2022-08-29T21:13:09.354Z,7.10
2022-08-29T21:15:38.055Z,5.88
2022-08-29T21:18:08.310Z,5.63
2022-08-29T21:20:37.870Z,7.78
2022-08-29T21:23:13.220Z,6.03
2022-08-29T21:25:41.263Z,6.45
2022-08-29T21:28:09.539Z,7.25
2022-08-29T21:30:41.372Z,7.15
2022-08-29T21:33:14.336Z,7.07
2022-08-29T21:35:42.296Z,6.68
2022-08-29T21:38:11.334Z,5.32
2022-08-29T21:40:46.745Z,5.30
2022-08-29T21:43:19.793Z,6.07
2022-08-29T21:45:47.940Z,6.68
2022-08-29T21:48:17.345Z,6.28
2022-08-29T21:50:45.539Z,6.85
2022-08-29T21:53:14.385Z,6.63
2022-08-29T21:55:42.391Z,6.00
2022-08-29T21:58:10.295Z,6.05
2022-08-29T22:00:42.055Z,6.10
2022-08-29T22:03:12.373Z,6.47
2022-08-29T22:05:43.948Z,6.53
2022-08-29T22:08:13.813Z,5.32
2022-08-29T22:10:43.170Z,6.90
2022-08-29T22:13:11.111Z,6.55
2022-08-29T22:15:56.781Z,7.65
2022-08-29T22:18:24.608Z,6.38
2022-08-29T22:20:55.578Z,5.93
2022-08-29T22:23:25.376Z,5.78
2022-08-29T22:25:53.981Z,5.85
2022-08-29T22:28:21.815Z,5.75
2022-08-29T22:30:49.787Z,5.78
2022-08-29T22:33:18.060Z,6.20
2022-08-29T22:35:46.506Z,5.85
2022-08-29T22:38:15.598Z,6.00
2022-08-29T22:40:44.566Z,6.82
2022-08-29T22:43:12.504Z,5.32
2022-08-29T22:45:41.614Z,6.90
2022-08-29T22:48:09.489Z,6.45
2022-08-29T22:50:37.638Z,6.43
2022-08-29T22:53:05.817Z,6.03
2022-08-29T22:55:35.003Z,7.85
2022-08-29T22:58:04.725Z,6.55
2022-08-29T23:00:32.471Z,6.35
2022-08-29T23:03:02.207Z,7.50
2022-08-29T23:05:31.052Z,6.10
2022-08-29T23:07:58.812Z,6.65
2022-08-29T23:10:26.611Z,5.63
2022-08-29T23:12:55.875Z,6.22
2022-08-29T23:15:23.850Z,7.30
2022-08-29T23:17:51.686Z,6.47
2022-08-29T23:20:19.685Z,6.85
2022-08-29T23:22:47.441Z,6.32
2022-08-29T23:25:16.533Z,8.77
2022-08-29T23:27:44.439Z,9.70
2022-08-29T23:30:15.274Z,7.70
2022-08-29T23:32:43.094Z,7.85
2022-08-29T23:35:11.404Z,8.35
2022-08-29T23:37:39.180Z,7.55
2022-08-29T23:40:08.138Z,8.25
2022-08-29T23:42:37.076Z,6.78
2022-08-29T23:45:06.656Z,7.47
2022-08-29T23:47:36.092Z,6.90
2022-08-29T23:50:05.054Z,6.43
2022-08-29T23:52:32.806Z,6.35
2022-08-29T23:55:01.773Z,8.15
2022-08-29T23:57:29.534Z,6.78
